sensor_id;sensor_type;location;lat;lon;timestamp;pressure;altitude;pressure_sealevel;temperature;humidity
73338;BME280;61575;49.908;35.556;2023-05-16T00:01:32;99570.53;;;14.22;48.63
73338;BME280;61575;49.908;35.556;2023-05-16T00:04:36;99565.91;;;14.16;48.71
73338;BME280;61575;49.908;35.556;2023-05-16T00:07:38;99559.88;;;14.13;48.92
73338;BME280;61575;49.908;35.556;2023-05-16T00:10:40;99555.88;;;14.09;48.89
73338;BME280;61575;49.908;35.556;2023-05-16T00:13:42;99558.13;;;14.06;49.34
73338;BME280;61575;49.908;35.556;2023-05-16T00:16:45;99554.97;;;14.02;49.23
73338;BME280;61575;49.908;35.556;2023-05-16T00:19:48;99559.53;;;14.02;49.26
73338;BME280;61575;49.908;35.556;2023-05-16T00:22:50;99558.06;;;13.99;49.42
73338;BME280;61575;49.908;35.556;2023-05-16T00:25:52;99564.47;;;13.98;49.43
73338;BME280;61575;49.908;35.556;2023-05-16T00:28:54;99568.41;;;13.96;49.47
73338;BME280;61575;49.908;35.556;2023-05-16T00:31:57;99566.72;;;13.95;49.47
73338;BME280;61575;49.908;35.556;2023-05-16T00:34:59;99566.66;;;13.88;49.71
73338;BME280;61575;49.908;35.556;2023-05-16T00:38:01;99561.81;;;13.84;49.72
73338;BME280;61575;49.908;35.556;2023-05-16T00:41:03;99558.47;;;13.82;49.91
73338;BME280;61575;49.908;35.556;2023-05-16T00:44:05;99558.84;;;13.78;50.01
73338;BME280;61575;49.908;35.556;2023-05-16T00:47:07;99560.25;;;13.74;50.05
73338;BME280;61575;49.908;35.556;2023-05-16T00:50:09;99553.19;;;13.73;50.18
73338;BME280;61575;49.908;35.556;2023-05-16T00:53:11;99551.69;;;13.71;49.98
73338;BME280;61575;49.908;35.556;2023-05-16T00:56:14;99557.47;;;13.68;50.29
73338;BME280;61575;49.908;35.556;2023-05-16T00:59:16;99559.53;;;13.66;50.61
73338;BME280;61575;49.908;35.556;2023-05-16T01:02:18;99559.06;;;13.62;50.44
73338;BME280;61575;49.908;35.556;2023-05-16T01:05:21;99566.69;;;13.59;50.43
73338;BME280;61575;49.908;35.556;2023-05-16T01:08:23;99558.16;;;13.55;50.75
73338;BME280;61575;49.908;35.556;2023-05-16T01:11:35;99559.34;;;13.53;50.91
73338;BME280;61575;49.908;35.556;2023-05-16T01:15:08;99566.16;;;13.48;51.53
73338;BME280;61575;49.908;35.556;2023-05-16T01:18:26;99570.25;;;13.44;51.20
73338;BME280;61575;49.908;35.556;2023-05-16T01:28:06;99569.03;;;13.32;51.62
73338;BME280;61575;49.908;35.556;2023-05-16T01:31:08;99566.03;;;13.27;51.60
73338;BME280;61575;49.908;35.556;2023-05-16T01:34:10;99567.06;;;13.26;51.47
73338;BME280;61575;49.908;35.556;2023-05-16T01:37:20;99574.50;;;13.24;51.72
73338;BME280;61575;49.908;35.556;2023-05-16T01:40:35;99573.19;;;13.20;51.82
73338;BME280;61575;49.908;35.556;2023-05-16T01:43:45;99564.44;;;13.18;52.15
73338;BME280;61575;49.908;35.556;2023-05-16T01:46:53;99573.56;;;13.17;52.04
73338;BME280;61575;49.908;35.556;2023-05-16T01:53:06;99564.00;;;13.14;52.29
73338;BME280;61575;49.908;35.556;2023-05-16T01:56:14;99573.28;;;13.12;52.54
73338;BME280;61575;49.908;35.556;2023-05-16T01:59:19;99569.28;;;13.08;52.86
73338;BME280;61575;49.908;35.556;2023-05-16T02:02:22;99564.44;;;13.03;52.94
73338;BME280;61575;49.908;35.556;2023-05-16T02:05:23;99565.28;;;13.04;53.23
73338;BME280;61575;49.908;35.556;2023-05-16T02:08:30;99568.63;;;13.06;53.00
73338;BME280;61575;49.908;35.556;2023-05-16T02:11:32;99572.16;;;13.06;53.05
73338;BME280;61575;49.908;35.556;2023-05-16T02:14:34;99563.25;;;13.06;53.02
73338;BME280;61575;49.908;35.556;2023-05-16T02:17:35;99566.22;;;13.11;52.93
73338;BME280;61575;49.908;35.556;2023-05-16T02:20:37;99564.19;;;13.13;53.16
73338;BME280;61575;49.908;35.556;2023-05-16T02:23:40;99567.34;;;13.16;53.55
73338;BME280;61575;49.908;35.556;2023-05-16T02:26:42;99573.66;;;13.24;52.88
73338;BME280;61575;49.908;35.556;2023-05-16T02:29:44;99567.06;;;13.26;52.42
73338;BME280;61575;49.908;35.556;2023-05-16T02:32:46;99561.09;;;13.31;52.90
73338;BME280;61575;49.908;35.556;2023-05-16T02:35:50;99562.91;;;13.38;52.39
73338;BME280;61575;49.908;35.556;2023-05-16T02:38:52;99559.84;;;13.41;52.60
73338;BME280;61575;49.908;35.556;2023-05-16T02:41:56;99567.56;;;13.44;52.47
73338;BME280;61575;49.908;35.556;2023-05-16T02:44:58;99564.28;;;13.49;52.38
73338;BME280;61575;49.908;35.556;2023-05-16T02:48:00;99561.50;;;13.57;52.34
73338;BME280;61575;49.908;35.556;2023-05-16T02:51:02;99560.75;;;13.63;52.45
73338;BME280;61575;49.908;35.556;2023-05-16T02:54:04;99555.34;;;13.63;52.53
73338;BME280;61575;49.908;35.556;2023-05-16T02:57:08;99552.00;;;13.61;52.66
73338;BME280;61575;49.908;35.556;2023-05-16T03:00:11;99551.63;;;13.64;52.45
73338;BME280;61575;49.908;35.556;2023-05-16T03:03:17;99552.06;;;13.68;52.11
73338;BME280;61575;49.908;35.556;2023-05-16T03:06:19;99558.13;;;13.70;52.03
73338;BME280;61575;49.908;35.556;2023-05-16T03:09:21;99557.09;;;13.71;52.10
73338;BME280;61575;49.908;35.556;2023-05-16T03:12:23;99560.44;;;13.73;52.14
73338;BME280;61575;49.908;35.556;2023-05-16T03:15:25;99563.59;;;13.76;52.09
73338;BME280;61575;49.908;35.556;2023-05-16T03:18:28;99556.34;;;13.77;52.19
73338;BME280;61575;49.908;35.556;2023-05-16T03:21:30;99567.22;;;13.84;52.19
73338;BME280;61575;49.908;35.556;2023-05-16T03:24:32;99563.94;;;13.88;51.98
73338;BME280;61575;49.908;35.556;2023-05-16T03:27:34;99570.25;;;13.95;52.17
73338;BME280;61575;49.908;35.556;2023-05-16T03:30:35;99571.56;;;13.99;52.14
73338;BME280;61575;49.908;35.556;2023-05-16T03:33:37;99563.97;;;14.09;51.63
73338;BME280;61575;49.908;35.556;2023-05-16T03:36:40;99573.88;;;14.24;51.83
73338;BME280;61575;49.908;35.556;2023-05-16T03:39:42;99577.75;;;14.36;51.53
73338;BME280;61575;49.908;35.556;2023-05-16T03:42:44;99581.81;;;14.47;51.29
73338;BME280;61575;49.908;35.556;2023-05-16T03:45:45;99570.66;;;14.56;50.95
73338;BME280;61575;49.908;35.556;2023-05-16T03:48:47;99570.00;;;14.75;51.03
73338;BME280;61575;49.908;35.556;2023-05-16T03:51:49;99572.91;;;15.02;50.50
73338;BME280;61575;49.908;35.556;2023-05-16T03:54:51;99575.34;;;15.25;49.52
73338;BME280;61575;49.908;35.556;2023-05-16T03:57:53;99577.81;;;15.54;48.97
73338;BME280;61575;49.908;35.556;2023-05-16T04:00:55;99570.84;;;15.73;48.53
73338;BME280;61575;49.908;35.556;2023-05-16T04:03:57;99569.06;;;15.93;48.08
73338;BME280;61575;49.908;35.556;2023-05-16T04:07:00;99573.50;;;16.21;47.58
73338;BME280;61575;49.908;35.556;2023-05-16T04:10:03;99567.50;;;16.45;46.80
73338;BME280;61575;49.908;35.556;2023-05-16T04:13:05;99570.91;;;16.74;46.80
73338;BME280;61575;49.908;35.556;2023-05-16T04:16:07;99569.44;;;16.84;45.85
73338;BME280;61575;49.908;35.556;2023-05-16T04:19:09;99570.66;;;17.15;45.01
73338;BME280;61575;49.908;35.556;2023-05-16T04:22:10;99577.75;;;17.22;44.70
73338;BME280;61575;49.908;35.556;2023-05-16T04:25:12;99568.91;;;17.47;44.12
73338;BME280;61575;49.908;35.556;2023-05-16T04:28:15;99571.41;;;17.61;43.18
73338;BME280;61575;49.908;35.556;2023-05-16T04:31:17;99564.41;;;17.85;43.41
73338;BME280;61575;49.908;35.556;2023-05-16T04:34:19;99569.19;;;17.96;42.11
73338;BME280;61575;49.908;35.556;2023-05-16T04:37:21;99576.44;;;18.09;42.28
73338;BME280;61575;49.908;35.556;2023-05-16T04:40:23;99569.34;;;18.40;41.47
73338;BME280;61575;49.908;35.556;2023-05-16T04:43:26;99577.16;;;18.61;41.01
73338;BME280;61575;49.908;35.556;2023-05-16T04:46:27;99584.19;;;18.75;40.50
73338;BME280;61575;49.908;35.556;2023-05-16T04:49:29;99586.00;;;19.06;40.04
73338;BME280;61575;49.908;35.556;2023-05-16T04:52:31;99581.28;;;19.20;39.29
73338;BME280;61575;49.908;35.556;2023-05-16T04:55:34;99577.84;;;19.31;39.18
73338;BME280;61575;49.908;35.556;2023-05-16T04:58:36;99586.41;;;19.35;39.13
73338;BME280;61575;49.908;35.556;2023-05-16T05:01:38;99590.56;;;19.55;39.09
73338;BME280;61575;49.908;35.556;2023-05-16T05:04:40;99592.00;;;19.58;38.97
73338;BME280;61575;49.908;35.556;2023-05-16T05:07:42;99601.00;;;19.58;38.63
73338;BME280;61575;49.908;35.556;2023-05-16T05:10:44;99594.31;;;19.73;38.96
73338;BME280;61575;49.908;35.556;2023-05-16T05:13:46;99593.09;;;19.87;38.33
73338;BME280;61575;49.908;35.556;2023-05-16T05:16:49;99598.25;;;19.77;37.67
73338;BME280;61575;49.908;35.556;2023-05-16T05:19:51;99592.41;;;19.62;37.76
73338;BME280;61575;49.908;35.556;2023-05-16T05:22:53;99590.88;;;19.66;38.12
73338;BME280;61575;49.908;35.556;2023-05-16T05:25:55;99589.56;;;19.86;37.69
73338;BME280;61575;49.908;35.556;2023-05-16T05:28:57;99591.03;;;20.19;37.51
73338;BME280;61575;49.908;35.556;2023-05-16T05:32:06;99595.06;;;20.46;36.93
73338;BME280;61575;49.908;35.556;2023-05-16T05:35:09;99593.84;;;20.84;36.39
73338;BME280;61575;49.908;35.556;2023-05-16T05:38:11;99592.84;;;21.08;36.33
73338;BME280;61575;49.908;35.556;2023-05-16T05:41:13;99597.34;;;21.26;35.50
73338;BME280;61575;49.908;35.556;2023-05-16T05:44:15;99593.06;;;21.42;35.64
73338;BME280;61575;49.908;35.556;2023-05-16T05:47:17;99590.09;;;21.55;34.81
73338;BME280;61575;49.908;35.556;2023-05-16T05:50:19;99594.72;;;21.66;34.26
73338;BME280;61575;49.908;35.556;2023-05-16T05:53:21;99606.69;;;21.89;34.07
73338;BME280;61575;49.908;35.556;2023-05-16T05:56:23;99609.13;;;22.13;33.82
73338;BME280;61575;49.908;35.556;2023-05-16T05:59:25;99602.13;;;22.46;33.09
73338;BME280;61575;49.908;35.556;2023-05-16T06:02:28;99611.28;;;22.68;32.82
73338;BME280;61575;49.908;35.556;2023-05-16T06:05:30;99606.66;;;22.86;32.38
73338;BME280;61575;49.908;35.556;2023-05-16T06:08:32;99605.34;;;23.05;32.20
73338;BME280;61575;49.908;35.556;2023-05-16T06:11:34;99601.03;;;23.26;32.63
73338;BME280;61575;49.908;35.556;2023-05-16T06:14:36;99597.53;;;23.47;31.55
73338;BME280;61575;49.908;35.556;2023-05-16T06:17:38;99601.34;;;23.46;31.44
73338;BME280;61575;49.908;35.556;2023-05-16T06:20:40;99605.31;;;23.55;31.05
73338;BME280;61575;49.908;35.556;2023-05-16T06:23:42;99602.22;;;23.68;31.02
73338;BME280;61575;49.908;35.556;2023-05-16T06:26:44;99599.84;;;23.77;30.63
73338;BME280;61575;49.908;35.556;2023-05-16T06:29:50;99606.34;;;23.88;30.32
73338;BME280;61575;49.908;35.556;2023-05-16T06:32:52;99605.00;;;23.90;29.95
73338;BME280;61575;49.908;35.556;2023-05-16T06:35:54;99603.22;;;24.01;29.56
73338;BME280;61575;49.908;35.556;2023-05-16T06:38:55;99600.06;;;24.14;29.76
73338;BME280;61575;49.908;35.556;2023-05-16T06:41:57;99600.06;;;24.14;29.24
73338;BME280;61575;49.908;35.556;2023-05-16T06:44:59;99604.19;;;24.38;29.94
73338;BME280;61575;49.908;35.556;2023-05-16T06:48:01;99602.78;;;24.36;29.46
73338;BME280;61575;49.908;35.556;2023-05-16T06:51:04;99595.81;;;24.50;28.83
73338;BME280;61575;49.908;35.556;2023-05-16T06:54:06;99601.44;;;24.60;29.07
73338;BME280;61575;49.908;35.556;2023-05-16T06:57:08;99604.38;;;24.81;28.79
73338;BME280;61575;49.908;35.556;2023-05-16T07:00:10;99607.06;;;24.76;29.13
73338;BME280;61575;49.908;35.556;2023-05-16T07:03:12;99611.47;;;24.77;28.87
73338;BME280;61575;49.908;35.556;2023-05-16T07:06:14;99605.16;;;24.76;29.36
73338;BME280;61575;49.908;35.556;2023-05-16T07:09:16;99600.00;;;24.85;29.07
73338;BME280;61575;49.908;35.556;2023-05-16T07:12:18;99606.59;;;24.84;28.32
73338;BME280;61575;49.908;35.556;2023-05-16T07:15:21;99602.97;;;24.78;28.99
73338;BME280;61575;49.908;35.556;2023-05-16T07:18:23;99600.53;;;25.19;28.18
73338;BME280;61575;49.908;35.556;2023-05-16T07:21:25;99602.94;;;25.47;28.31
73338;BME280;61575;49.908;35.556;2023-05-16T07:24:27;99610.00;;;25.33;27.72
73338;BME280;61575;49.908;35.556;2023-05-16T07:27:30;99611.53;;;25.56;28.33
73338;BME280;61575;49.908;35.556;2023-05-16T07:30:32;99601.22;;;25.83;27.81
73338;BME280;61575;49.908;35.556;2023-05-16T07:33:35;99608.81;;;26.13;28.11
73338;BME280;61575;49.908;35.556;2023-05-16T07:36:37;99611.03;;;26.21;27.28
73338;BME280;61575;49.908;35.556;2023-05-16T07:39:39;99604.34;;;25.97;26.58
73338;BME280;61575;49.908;35.556;2023-05-16T07:42:41;99584.34;;;26.22;27.16
73338;BME280;61575;49.908;35.556;2023-05-16T07:45:43;99601.16;;;26.30;26.75
73338;BME280;61575;49.908;35.556;2023-05-16T07:48:45;99607.78;;;26.40;27.13
73338;BME280;61575;49.908;35.556;2023-05-16T07:51:47;99600.34;;;26.30;26.75
73338;BME280;61575;49.908;35.556;2023-05-16T07:54:49;99599.81;;;26.38;26.38
73338;BME280;61575;49.908;35.556;2023-05-16T07:57:51;99598.94;;;26.27;26.65
73338;BME280;61575;49.908;35.556;2023-05-16T08:00:53;99585.50;;;26.46;26.12
73338;BME280;61575;49.908;35.556;2023-05-16T08:03:55;99586.06;;;26.48;26.13
73338;BME280;61575;49.908;35.556;2023-05-16T08:06:57;99588.59;;;26.60;26.43
73338;BME280;61575;49.908;35.556;2023-05-16T08:09:59;99588.31;;;26.82;26.67
73338;BME280;61575;49.908;35.556;2023-05-16T08:13:01;99588.88;;;26.84;26.56
73338;BME280;61575;49.908;35.556;2023-05-16T08:16:05;99597.69;;;27.06;26.91
73338;BME280;61575;49.908;35.556;2023-05-16T08:19:07;99587.78;;;26.95;26.05
73338;BME280;61575;49.908;35.556;2023-05-16T08:22:09;99591.63;;;26.79;27.21
73338;BME280;61575;49.908;35.556;2023-05-16T08:25:11;99584.47;;;26.83;26.35
73338;BME280;61575;49.908;35.556;2023-05-16T08:28:14;99583.13;;;27.16;26.51
73338;BME280;61575;49.908;35.556;2023-05-16T08:31:15;99585.81;;;27.51;26.61
73338;BME280;61575;49.908;35.556;2023-05-16T08:34:17;99581.94;;;27.57;26.49
73338;BME280;61575;49.908;35.556;2023-05-16T08:37:19;99576.41;;;27.63;26.05
73338;BME280;61575;49.908;35.556;2023-05-16T08:40:25;99578.59;;;27.71;25.81
73338;BME280;61575;49.908;35.556;2023-05-16T08:43:27;99575.31;;;27.53;25.78
73338;BME280;61575;49.908;35.556;2023-05-16T08:46:31;99571.75;;;27.53;26.15
73338;BME280;61575;49.908;35.556;2023-05-16T08:49:34;99580.78;;;27.69;26.00
73338;BME280;61575;49.908;35.556;2023-05-16T08:52:37;99575.81;;;27.71;25.76
73338;BME280;61575;49.908;35.556;2023-05-16T08:55:41;99575.81;;;27.71;26.34
73338;BME280;61575;49.908;35.556;2023-05-16T08:58:45;99576.66;;;27.71;25.70
73338;BME280;61575;49.908;35.556;2023-05-16T09:01:47;99558.69;;;27.84;25.72
73338;BME280;61575;49.908;35.556;2023-05-16T09:04:50;99562.63;;;27.57;25.50
73338;BME280;61575;49.908;35.556;2023-05-16T09:07:53;99565.75;;;27.20;25.77
73338;BME280;61575;49.908;35.556;2023-05-16T09:10:55;99566.56;;;27.16;25.08
73338;BME280;61575;49.908;35.556;2023-05-16T09:13:57;99559.13;;;27.26;25.48
73338;BME280;61575;49.908;35.556;2023-05-16T09:17:05;99556.34;;;27.01;26.12
73338;BME280;61575;49.908;35.556;2023-05-16T09:20:14;99552.75;;;27.31;25.85
73338;BME280;61575;49.908;35.556;2023-05-16T09:23:23;99557.16;;;27.37;26.29
73338;BME280;61575;49.908;35.556;2023-05-16T09:26:25;99552.78;;;27.26;25.86
73338;BME280;61575;49.908;35.556;2023-05-16T09:29:28;99548.34;;;27.30;25.91
73338;BME280;61575;49.908;35.556;2023-05-16T09:32:30;99545.59;;;27.30;25.32
73338;BME280;61575;49.908;35.556;2023-05-16T09:35:32;99549.94;;;27.51;25.62
73338;BME280;61575;49.908;35.556;2023-05-16T09:38:37;99549.66;;;27.53;24.71
73338;BME280;61575;49.908;35.556;2023-05-16T09:41:39;99547.22;;;27.36;24.68
73338;BME280;61575;49.908;35.556;2023-05-16T09:44:45;99548.00;;;27.57;25.38
73338;BME280;61575;49.908;35.556;2023-05-16T09:47:48;99553.84;;;27.45;25.22
73338;BME280;61575;49.908;35.556;2023-05-16T09:50:51;99547.25;;;27.26;24.46
73338;BME280;61575;49.908;35.556;2023-05-16T09:53:57;99542.28;;;27.33;24.96
73338;BME280;61575;49.908;35.556;2023-05-16T09:56:59;99537.03;;;27.32;25.50
73338;BME280;61575;49.908;35.556;2023-05-16T10:00:05;99538.97;;;27.26;25.34
73338;BME280;61575;49.908;35.556;2023-05-16T10:03:10;99542.53;;;27.42;25.62
73338;BME280;61575;49.908;35.556;2023-05-16T10:06:13;99537.31;;;27.30;25.85
73338;BME280;61575;49.908;35.556;2023-05-16T10:09:17;99542.03;;;27.04;25.37
73338;BME280;61575;49.908;35.556;2023-05-16T10:12:29;99543.69;;;27.00;25.18
73338;BME280;61575;49.908;35.556;2023-05-16T10:15:33;99544.22;;;27.07;24.88
73338;BME280;61575;49.908;35.556;2023-05-16T10:18:38;99539.53;;;27.23;25.81
73338;BME280;61575;49.908;35.556;2023-05-16T10:21:50;99541.72;;;27.36;25.70
73338;BME280;61575;49.908;35.556;2023-05-16T10:25:19;99537.34;;;27.20;25.13
73338;BME280;61575;49.908;35.556;2023-05-16T10:28:27;99532.88;;;27.39;25.86
73338;BME280;61575;49.908;35.556;2023-05-16T10:31:30;99535.97;;;27.22;25.33
73338;BME280;61575;49.908;35.556;2023-05-16T10:34:33;99529.91;;;27.20;25.38
73338;BME280;61575;49.908;35.556;2023-05-16T10:37:35;99537.34;;;27.15;25.63
73338;BME280;61575;49.908;35.556;2023-05-16T10:40:38;99535.66;;;27.09;25.52
73338;BME280;61575;49.908;35.556;2023-05-16T10:43:44;99535.13;;;26.91;25.30
73338;BME280;61575;49.908;35.556;2023-05-16T10:46:47;99542.59;;;26.81;25.82
73338;BME280;61575;49.908;35.556;2023-05-16T10:49:49;99543.41;;;26.91;26.02
73338;BME280;61575;49.908;35.556;2023-05-16T10:52:51;99539.00;;;26.90;26.21
73338;BME280;61575;49.908;35.556;2023-05-16T10:59:02;99542.31;;;26.98;26.26
73338;BME280;61575;49.908;35.556;2023-05-16T11:02:20;99548.63;;;26.98;26.05
73338;BME280;61575;49.908;35.556;2023-05-16T11:05:23;99539.81;;;27.16;25.80
73338;BME280;61575;49.908;35.556;2023-05-16T11:08:26;99535.41;;;27.20;25.04
73338;BME280;61575;49.908;35.556;2023-05-16T11:14:40;99529.84;;;27.41;25.07
73338;BME280;61575;49.908;35.556;2023-05-16T11:17:48;99527.34;;;27.44;24.87
73338;BME280;61575;49.908;35.556;2023-05-16T11:20:51;99529.97;;;27.90;24.93
73338;BME280;61575;49.908;35.556;2023-05-16T11:24:33;99520.75;;;28.10;24.88
73338;BME280;61575;49.908;35.556;2023-05-16T11:27:46;99524.78;;;28.28;25.41
73338;BME280;61575;49.908;35.556;2023-05-16T11:30:51;99524.06;;;28.07;24.20
73338;BME280;61575;49.908;35.556;2023-05-16T11:33:56;99515.72;;;28.17;24.45
73338;BME280;61575;49.908;35.556;2023-05-16T11:36:58;99525.19;;;28.50;24.09
73338;BME280;61575;49.908;35.556;2023-05-16T11:40:05;99521.91;;;28.48;24.46
73338;BME280;61575;49.908;35.556;2023-05-16T11:43:16;99516.69;;;28.41;25.03
73338;BME280;61575;49.908;35.556;2023-05-16T11:46:18;99511.22;;;28.36;24.61
73338;BME280;61575;49.908;35.556;2023-05-16T11:49:20;99508.28;;;28.17;25.07
73338;BME280;61575;49.908;35.556;2023-05-16T11:52:23;99517.75;;;28.01;24.65
73338;BME280;61575;49.908;35.556;2023-05-16T11:55:29;99516.19;;;27.85;24.65
73338;BME280;61575;49.908;35.556;2023-05-16T11:58:34;99510.44;;;27.76;24.80
73338;BME280;61575;49.908;35.556;2023-05-16T12:01:38;99499.69;;;27.75;24.50
73338;BME280;61575;49.908;35.556;2023-05-16T12:04:45;99507.13;;;27.69;25.03
73338;BME280;61575;49.908;35.556;2023-05-16T12:07:48;99510.25;;;27.47;25.00
73338;BME280;61575;49.908;35.556;2023-05-16T12:10:52;99498.94;;;27.49;24.79
73338;BME280;61575;49.908;35.556;2023-05-16T12:13:55;99503.59;;;27.53;24.69
73338;BME280;61575;49.908;35.556;2023-05-16T12:16:57;99506.97;;;27.40;24.34
73338;BME280;61575;49.908;35.556;2023-05-16T12:19:59;99500.09;;;27.27;24.56
73338;BME280;61575;49.908;35.556;2023-05-16T12:23:02;99495.97;;;27.20;24.83
73338;BME280;61575;49.908;35.556;2023-05-16T12:26:05;99491.81;;;27.27;24.88
73338;BME280;61575;49.908;35.556;2023-05-16T12:29:07;99497.06;;;27.29;25.07
73338;BME280;61575;49.908;35.556;2023-05-16T12:32:12;99496.47;;;27.37;24.87
73338;BME280;61575;49.908;35.556;2023-05-16T12:35:17;99497.88;;;27.35;24.81
73338;BME280;61575;49.908;35.556;2023-05-16T12:38:20;99499.28;;;27.27;25.12
73338;BME280;61575;49.908;35.556;2023-05-16T12:41:22;99497.06;;;27.29;25.38
73338;BME280;61575;49.908;35.556;2023-05-16T12:44:28;99488.25;;;27.22;23.52
73338;BME280;61575;49.908;35.556;2023-05-16T12:47:34;99477.78;;;27.24;25.17
73338;BME280;61575;49.908;35.556;2023-05-16T12:50:38;99487.16;;;27.18;24.93
73338;BME280;61575;49.908;35.556;2023-05-16T12:53:46;99483.00;;;27.10;24.82
73338;BME280;61575;49.908;35.556;2023-05-16T12:57:11;99492.13;;;27.11;24.47
73338;BME280;61575;49.908;35.556;2023-05-16T13:00:15;99475.03;;;27.09;24.80
73338;BME280;61575;49.908;35.556;2023-05-16T13:03:19;99480.00;;;27.17;24.80
73338;BME280;61575;49.908;35.556;2023-05-16T13:06:22;99475.31;;;27.17;25.59
73338;BME280;61575;49.908;35.556;2023-05-16T13:09:24;99477.22;;;27.27;25.57
73338;BME280;61575;49.908;35.556;2023-05-16T13:12:31;99472.81;;;27.11;25.62
73338;BME280;61575;49.908;35.556;2023-05-16T13:15:33;99481.09;;;27.11;26.21
73338;BME280;61575;49.908;35.556;2023-05-16T13:18:35;99471.19;;;26.94;25.65
73338;BME280;61575;49.908;35.556;2023-05-16T13:21:37;99471.47;;;26.98;25.66
73338;BME280;61575;49.908;35.556;2023-05-16T13:24:39;99464.63;;;26.75;25.90
73338;BME280;61575;49.908;35.556;2023-05-16T13:27:41;99479.22;;;26.55;26.25
73338;BME280;61575;49.908;35.556;2023-05-16T13:30:44;99473.69;;;26.45;25.95
73338;BME280;61575;49.908;35.556;2023-05-16T13:33:47;99471.75;;;26.25;26.25
73338;BME280;61575;49.908;35.556;2023-05-16T13:36:49;99478.91;;;26.21;25.81
73338;BME280;61575;49.908;35.556;2023-05-16T13:39:55;99480.81;;;26.16;26.69
73338;BME280;61575;49.908;35.556;2023-05-16T13:42:57;99487.13;;;26.06;26.78
73338;BME280;61575;49.908;35.556;2023-05-16T13:45:59;99486.03;;;26.02;26.98
73338;BME280;61575;49.908;35.556;2023-05-16T13:49:01;99486.59;;;26.04;27.06
73338;BME280;61575;49.908;35.556;2023-05-16T13:52:03;99485.47;;;25.95;27.05
73338;BME280;61575;49.908;35.556;2023-05-16T13:55:06;99478.78;;;25.81;26.78
73338;BME280;61575;49.908;35.556;2023-05-16T13:58:08;99484.91;;;25.98;26.99
73338;BME280;61575;49.908;35.556;2023-05-16T14:01:10;99489.06;;;26.06;27.02
73338;BME280;61575;49.908;35.556;2023-05-16T14:04:14;99484.38;;;26.06;26.92
73338;BME280;61575;49.908;35.556;2023-05-16T14:07:16;99499.50;;;26.04;26.54
73338;BME280;61575;49.908;35.556;2023-05-16T14:10:19;99495.66;;;25.99;27.01
73338;BME280;61575;49.908;35.556;2023-05-16T14:13:21;99491.22;;;25.93;26.80
73338;BME280;61575;49.908;35.556;2023-05-16T14:16:22;99497.47;;;25.74;27.20
73338;BME280;61575;49.908;35.556;2023-05-16T14:19:25;99494.09;;;25.56;27.15
73338;BME280;61575;49.908;35.556;2023-05-16T14:22:27;99486.38;;;25.48;27.41
73338;BME280;61575;49.908;35.556;2023-05-16T14:25:29;99486.88;;;25.40;27.70
73338;BME280;61575;49.908;35.556;2023-05-16T14:28:31;99485.19;;;25.29;27.46
73338;BME280;61575;49.908;35.556;2023-05-16T14:31:34;99482.28;;;25.09;27.74
73338;BME280;61575;49.908;35.556;2023-05-16T14:34:37;99480.59;;;25.02;28.04
73338;BME280;61575;49.908;35.556;2023-05-16T14:37:39;99483.28;;;24.92;27.60
73338;BME280;61575;49.908;35.556;2023-05-16T14:40:41;99488.16;;;24.80;27.81
73338;BME280;61575;49.908;35.556;2023-05-16T14:43:44;99488.13;;;24.75;27.96
73338;BME280;61575;49.908;35.556;2023-05-16T14:46:46;99491.66;;;24.70;28.08
73338;BME280;61575;49.908;35.556;2023-05-16T14:49:48;99488.88;;;24.65;28.31
73338;BME280;61575;49.908;35.556;2023-05-16T14:52:50;99494.28;;;24.55;28.90
73338;BME280;61575;49.908;35.556;2023-05-16T14:55:53;99505.47;;;24.49;28.69
73338;BME280;61575;49.908;35.556;2023-05-16T14:58:55;99516.66;;;24.42;29.47
73338;BME280;61575;49.908;35.556;2023-05-16T15:01:57;99522.25;;;24.25;30.78
73338;BME280;61575;49.908;35.556;2023-05-16T15:05:00;99520.50;;;24.14;30.31
73338;BME280;61575;49.908;35.556;2023-05-16T15:08:02;99523.34;;;23.97;30.62
73338;BME280;61575;49.908;35.556;2023-05-16T15:11:04;99522.19;;;23.93;30.60
73338;BME280;61575;49.908;35.556;2023-05-16T15:14:06;99524.22;;;23.81;31.81
73338;BME280;61575;49.908;35.556;2023-05-16T15:17:08;99529.06;;;23.74;30.92
73338;BME280;61575;49.908;35.556;2023-05-16T15:20:10;99518.59;;;23.49;31.71
73338;BME280;61575;49.908;35.556;2023-05-16T15:23:12;99518.34;;;23.29;31.86
73338;BME280;61575;49.908;35.556;2023-05-16T15:26:16;99527.91;;;22.93;32.13
73338;BME280;61575;49.908;35.556;2023-05-16T15:29:18;99526.34;;;22.80;31.83
73338;BME280;61575;49.908;35.556;2023-05-16T15:32:20;99526.50;;;22.57;32.21
73338;BME280;61575;49.908;35.556;2023-05-16T15:35:24;99531.66;;;22.53;32.12
73338;BME280;61575;49.908;35.556;2023-05-16T15:38:27;99540.09;;;22.52;32.28
73338;BME280;61575;49.908;35.556;2023-05-16T15:41:29;99541.22;;;22.39;32.40
73338;BME280;61575;49.908;35.556;2023-05-16T15:44:51;99539.13;;;22.29;32.34
73338;BME280;61575;49.908;35.556;2023-05-16T15:47:53;99542.34;;;22.26;32.51
73338;BME280;61575;49.908;35.556;2023-05-16T15:50:55;99541.78;;;22.24;32.33
73338;BME280;61575;49.908;35.556;2023-05-16T15:53:57;99550.28;;;22.11;32.58
73338;BME280;61575;49.908;35.556;2023-05-16T15:56:59;99557.16;;;22.13;32.47
73338;BME280;61575;49.908;35.556;2023-05-16T16:00:01;99555.75;;;22.11;32.58
73338;BME280;61575;49.908;35.556;2023-05-16T16:03:12;99553.25;;;22.09;32.34
73338;BME280;61575;49.908;35.556;2023-05-16T16:06:14;99559.00;;;21.96;32.57
73338;BME280;61575;49.908;35.556;2023-05-16T16:09:16;99548.06;;;21.96;32.55
73338;BME280;61575;49.908;35.556;2023-05-16T16:12:18;99548.31;;;21.95;32.53
73338;BME280;61575;49.908;35.556;2023-05-16T16:15:20;99558.66;;;21.93;32.80